Time;durP1;ratioP1;P1;durP2;ratioP2;P2;SDS_P1;SDS_P2;PMS_P1;PMS_P2;Temp;Humidity;BMP_temperature;BMP_pressure;BME280_temperature;BME280_humidity;BME280_pressure;Samples;Min_cycle;Max_cycle;Signal;HPM_P1;HPM_P2
2022/10/03 00:00:38;;;;;;;1.47;1.47;;;20.20;66.50;;;;;;5063805;28;43581;-77
2022/10/03 00:03:20;;;;;;;1.10;1.10;;;20.20;66.40;;;;;;5064909;28;43686;-76
2022/10/03 00:06:02;;;;;;;1.30;1.30;;;20.10;66.50;;;;;;5065267;28;44068;-76
2022/10/03 00:09:02;;;;;;;1.20;1.20;;;20.00;66.60;;;;;;5063959;28;43484;-75
2022/10/03 00:11:39;;;;;;;1.17;1.17;;;20.00;67.20;;;;;;5009777;28;43985;-74
2022/10/03 00:14:13;;;;;;;1.20;1.20;;;20.00;67.00;;;;;;5055960;28;44266;-73
2022/10/03 00:16:43;;;;;;;1.10;1.10;;;20.00;66.90;;;;;;5065143;28;43469;-73
2022/10/03 00:19:16;;;;;;;1.23;1.23;;;20.00;67.00;;;;;;5080600;28;43979;-74
2022/10/03 00:21:51;;;;;;;1.20;1.20;;;19.90;67.00;;;;;;5065472;28;43345;-75
2022/10/03 00:24:24;;;;;;;1.17;1.17;;;19.90;67.60;;;;;;5064781;28;43599;-75
2022/10/03 00:26:56;;;;;;;1.10;1.10;;;19.90;67.40;;;;;;5062636;28;43937;-76
2022/10/03 00:29:46;;;;;;;1.20;1.20;;;20.10;67.00;;;;;;5063529;28;43421;-76
2022/10/03 00:32:30;;;;;;;1.10;1.10;;;20.20;66.60;;;;;;5065042;28;44087;-75
2022/10/03 00:35:06;;;;;;;1.10;1.10;;;20.20;66.30;;;;;;5064986;28;43876;-74
2022/10/03 00:37:36;;;;;;;1.00;1.00;;;20.20;66.50;;;;;;5063397;28;43440;-76
2022/10/03 00:40:35;;;;;;;1.17;1.17;;;20.20;66.80;;;;;;5060474;28;43916;-75
2022/10/03 00:43:36;;;;;;;1.10;1.10;;;20.20;66.60;;;;;;5065140;28;43437;-77
2022/10/03 00:46:33;;;;;;;1.40;1.40;;;20.10;66.50;;;;;;5063973;28;43885;-75
2022/10/03 00:49:40;;;;;;;1.10;1.10;;;20.00;66.60;;;;;;5066682;28;43429;-76
2022/10/03 00:52:19;;;;;;;1.10;1.10;;;20.00;67.30;;;;;;5055099;28;43466;-75
2022/10/03 00:54:54;;;;;;;1.00;1.00;;;20.00;67.20;;;;;;5064972;28;43501;-76
2022/10/03 00:57:34;;;;;;;1.20;1.20;;;20.00;67.00;;;;;;5065293;28;46156;-74
2022/10/03 01:00:13;;;;;;;0.90;0.90;;;20.00;67.00;;;;;;5068240;28;43550;-75
2022/10/03 01:02:48;;;;;;;0.90;0.90;;;19.90;67.00;;;;;;5068253;28;43497;-70
2022/10/03 01:05:21;;;;;;;0.93;0.93;;;19.90;67.50;;;;;;5065577;28;44026;-71
2022/10/03 01:07:58;;;;;;;1.20;1.20;;;19.90;67.50;;;;;;5065171;28;45675;-72
2022/10/03 01:10:29;;;;;;;1.20;1.20;;;20.00;67.10;;;;;;5066685;28;43502;-71
2022/10/03 01:13:06;;;;;;;1.13;1.13;;;20.20;66.70;;;;;;5067726;28;43453;-70
2022/10/03 01:15:40;;;;;;;1.20;1.20;;;20.20;66.40;;;;;;5066866;28;44266;-73
2022/10/03 01:18:19;;;;;;;1.00;1.00;;;20.20;66.30;;;;;;5065745;28;45496;-72
2022/10/03 01:20:52;;;;;;;1.00;1.00;;;20.20;66.60;;;;;;5064248;28;43406;-70
2022/10/03 01:23:50;;;;;;;1.23;1.23;;;20.20;66.40;;;;;;5066575;28;43385;-70
2022/10/03 01:26:42;;;;;;;1.00;1.00;;;20.20;66.40;;;;;;5067918;28;43924;-71
2022/10/03 01:32:00;;;;;;;0.90;0.90;;;20.00;66.80;;;;;;5061458;28;45048;-70
2022/10/03 01:34:31;;;;;;;1.03;1.03;;;20.00;67.20;;;;;;5065408;28;44095;-70
2022/10/03 01:37:05;;;;;;;0.90;0.90;;;20.00;66.90;;;;;;5065684;28;43570;-72
2022/10/03 01:39:37;;;;;;;0.93;0.93;;;20.00;66.90;;;;;;5063906;28;43956;-71
2022/10/03 01:42:08;;;;;;;1.10;1.10;;;20.00;66.90;;;;;;5067448;28;43494;-73
2022/10/03 01:44:44;;;;;;;0.80;0.80;;;19.90;67.00;;;;;;5066046;28;43509;-71
2022/10/03 01:47:18;;;;;;;1.00;1.00;;;19.90;67.50;;;;;;5066535;28;43496;-72
2022/10/03 01:49:48;;;;;;;1.00;1.00;;;19.90;67.40;;;;;;5062091;28;44031;-72
2022/10/03 01:52:19;;;;;;;0.90;0.90;;;20.00;66.90;;;;;;5063954;28;44039;-71
2022/10/03 01:54:51;;;;;;;1.00;1.00;;;20.20;66.40;;;;;;5066675;28;44096;-70
2022/10/03 01:57:21;;;;;;;0.83;0.83;;;20.40;66.00;;;;;;5065921;28;44109;-70
2022/10/03 01:59:54;;;;;;;1.00;1.00;;;20.40;65.80;;;;;;5065186;28;43856;-71
2022/10/03 02:02:28;;;;;;;1.00;1.00;;;20.40;65.80;;;;;;5066762;28;43963;-71
2022/10/03 02:05:00;;;;;;;1.03;1.03;;;20.20;65.90;;;;;;5065432;28;43449;-70
2022/10/03 02:07:30;;;;;;;1.10;1.10;;;20.10;66.10;;;;;;5062660;28;43453;-70
2022/10/03 02:10:02;;;;;;;0.87;0.87;;;20.00;66.60;;;;;;5065575;28;44245;-71
2022/10/03 02:12:33;;;;;;;0.80;0.80;;;20.00;66.90;;;;;;5067150;28;43817;-72
2022/10/03 02:15:13;;;;;;;1.10;1.10;;;20.00;66.80;;;;;;5067107;28;43385;-72
2022/10/03 02:17:48;;;;;;;0.77;0.77;;;20.00;66.80;;;;;;5066041;28;43417;-72
2022/10/03 02:20:24;;;;;;;1.00;1.00;;;19.90;66.80;;;;;;5065874;28;44952;-70
2022/10/03 02:22:53;;;;;;;0.90;0.90;;;19.90;67.00;;;;;;5065336;28;43458;-72
2022/10/03 02:25:25;;;;;;;0.90;0.90;;;19.90;67.40;;;;;;5066495;28;43383;-71
2022/10/03 02:28:23;;;;;;;0.90;0.90;;;19.90;67.30;;;;;;5064325;28;43512;-71
2022/10/03 02:31:06;;;;;;;0.73;0.73;;;19.90;67.00;;;;;;5065260;28;43611;-71
2022/10/03 02:33:48;;;;;;;0.90;0.90;;;19.90;67.00;;;;;;5063841;28;44449;-71
2022/10/03 02:36:43;;;;;;;1.00;1.00;;;19.80;67.20;;;;;;5066103;28;43462;-70
2022/10/03 02:39:25;;;;;;;1.00;1.00;;;19.90;67.60;;;;;;5065340;28;43475;-72
2022/10/03 02:42:23;;;;;;;1.00;1.00;;;20.00;67.20;;;;;;5065344;28;43940;-72
2022/10/03 02:45:04;;;;;;;0.97;0.97;;;20.20;66.70;;;;;;5065823;28;43415;-73
2022/10/03 02:48:09;;;;;;;1.00;1.00;;;20.30;66.00;;;;;;5059522;28;43423;-72
2022/10/03 02:51:16;;;;;;;0.90;0.90;;;20.40;65.60;;;;;;5064481;28;43971;-72
2022/10/03 02:53:57;;;;;;;0.83;0.83;;;20.40;65.70;;;;;;5065781;28;43595;-73
2022/10/03 02:56:58;;;;;;;0.90;0.90;;;20.20;65.90;;;;;;5064868;28;44704;-71
2022/10/03 02:59:45;;;;;;;1.00;1.00;;;20.10;66.20;;;;;;5055571;28;43466;-70
2022/10/03 03:02:40;;;;;;;0.97;0.97;;;20.00;66.80;;;;;;5051346;28;43575;-71
2022/10/03 03:05:43;;;;;;;0.80;0.80;;;20.00;66.70;;;;;;5061681;28;45534;-71
2022/10/03 03:08:36;;;;;;;1.00;1.00;;;20.00;66.70;;;;;;5061253;28;43450;-71
2022/10/03 03:11:38;;;;;;;0.90;0.90;;;19.90;66.80;;;;;;5057411;28;43466;-71
2022/10/03 03:14:45;;;;;;;0.80;0.80;;;19.90;67.30;;;;;;5018471;28;44322;-71
2022/10/03 03:17:29;;;;;;;0.97;0.97;;;19.90;67.30;;;;;;5064820;28;43860;-71
2022/10/03 03:20:05;;;;;;;0.93;0.93;;;19.90;67.00;;;;;;5062877;28;43512;-70
2022/10/03 03:22:40;;;;;;;0.90;0.90;;;19.90;67.00;;;;;;5065752;28;43569;-70
2022/10/03 03:25:22;;;;;;;1.00;1.00;;;19.90;67.10;;;;;;5066036;28;43505;-71
2022/10/03 03:27:57;;;;;;;1.30;1.20;;;19.80;67.50;;;;;;5065392;28;43942;-71
2022/10/03 03:30:27;;;;;;;2.27;1.63;;;19.90;67.50;;;;;;5065055;28;43489;-70
2022/10/03 03:33:06;;;;;;;2.33;2.00;;;20.00;67.10;;;;;;5064442;28;43438;-71
2022/10/03 03:35:42;;;;;;;2.77;2.20;;;20.20;67.20;;;;;;5062149;28;43569;-71
2022/10/03 03:38:19;;;;;;;4.70;2.83;;;20.30;65.90;;;;;;5063196;28;45843;-70
2022/10/03 03:40:55;;;;;;;9.83;3.70;;;20.40;65.80;;;;;;5065169;28;43953;-70
2022/10/03 03:43:33;;;;;;;6.90;3.77;;;20.30;65.70;;;;;;5058262;28;43466;-72
2022/10/03 03:46:08;;;;;;;5.70;3.53;;;20.20;65.90;;;;;;5062341;28;43470;-72
2022/10/03 03:48:58;;;;;;;13.53;5.37;;;20.10;66.20;;;;;;5062247;28;43667;-71
2022/10/03 03:51:33;;;;;;;13.53;5.53;;;20.00;66.80;;;;;;5064115;28;43458;-71
2022/10/03 03:54:39;;;;;;;9.93;5.40;;;20.00;66.70;;;;;;5065873;28;43445;-72
2022/10/03 03:57:31;;;;;;;12.13;5.73;;;20.00;66.60;;;;;;5063369;28;43422;-70
2022/10/03 04:00:08;;;;;;;10.37;5.03;;;19.90;66.70;;;;;;5058700;28;43875;-70
2022/10/03 04:02:52;;;;;;;18.33;6.80;;;19.90;66.90;;;;;;5061592;28;43440;-71
2022/10/03 04:05:27;;;;;;;19.60;7.73;;;19.80;67.30;;;;;;5065304;28;43422;-71
2022/10/03 04:08:10;;;;;;;18.47;8.07;;;19.90;67.30;;;;;;5065778;28;43573;-71
2022/10/03 04:10:47;;;;;;;23.80;7.93;;;20.00;66.70;;;;;;5062501;28;43936;-74
2022/10/03 04:13:46;;;;;;;19.50;7.73;;;20.10;66.30;;;;;;5064179;28;43474;-71
2022/10/03 04:19:08;;;;;;;20.73;8.63;;;20.10;66.60;;;;;;5065664;28;43971;-70
2022/10/03 04:21:54;;;;;;;21.43;8.50;;;20.10;66.60;;;;;;5067518;28;44163;-72
2022/10/03 04:24:35;;;;;;;26.33;8.70;;;20.10;66.50;;;;;;5068191;28;43851;-72
2022/10/03 04:27:12;;;;;;;20.50;8.47;;;20.10;66.60;;;;;;5064114;28;43429;-72
2022/10/03 04:29:46;;;;;;;22.40;9.33;;;20.00;66.60;;;;;;5064850;28;43408;-71
2022/10/03 04:32:25;;;;;;;21.23;9.57;;;19.90;67.00;;;;;;5066987;28;43923;-70
2022/10/03 04:35:03;;;;;;;22.30;10.00;;;19.90;67.10;;;;;;5068097;28;43550;-70
2022/10/03 04:37:34;;;;;;;23.07;9.40;;;20.00;66.90;;;;;;5067228;28;43339;-72
2022/10/03 04:40:17;;;;;;;26.83;10.10;;;20.10;66.50;;;;;;5065920;28;43486;-70
2022/10/03 04:42:50;;;;;;;20.37;9.17;;;20.10;66.30;;;;;;5066770;28;43599;-71
2022/10/03 04:45:27;;;;;;;21.97;9.57;;;20.10;66.50;;;;;;5066378;28;44688;-69
2022/10/03 04:47:59;;;;;;;20.73;9.37;;;20.10;66.70;;;;;;5067780;28;43371;-73
2022/10/03 04:50:31;;;;;;;23.17;9.80;;;20.10;66.50;;;;;;5068397;28;43486;-71
2022/10/03 04:53:22;;;;;;;20.40;9.57;;;20.00;66.50;;;;;;5066432;28;44070;-72
2022/10/03 04:55:52;;;;;;;20.83;9.27;;;20.00;66.60;;;;;;5067085;28;43414;-71
2022/10/03 04:58:26;;;;;;;23.47;9.97;;;19.90;66.70;;;;;;5067874;28;44017;-70
2022/10/03 05:01:00;;;;;;;22.30;10.00;;;19.90;67.10;;;;;;5068609;28;43466;-73
2022/10/03 05:03:35;;;;;;;21.47;10.20;;;19.90;67.00;;;;;;5067354;28;43808;-69
2022/10/03 05:06:05;;;;;;;17.70;9.10;;;19.90;66.90;;;;;;5066116;28;44614;-70
2022/10/03 05:08:38;;;;;;;20.97;9.63;;;19.90;66.90;;;;;;5065649;28;43434;-70
2022/10/03 05:11:14;;;;;;;25.97;10.80;;;19.80;66.90;;;;;;5068050;28;43426;-71
2022/10/03 05:13:57;;;;;;;20.07;9.87;;;19.80;67.40;;;;;;5067730;28;43945;-70
2022/10/03 05:16:32;;;;;;;18.00;9.43;;;19.90;67.10;;;;;;5064672;28;43509;-71
2022/10/03 05:19:09;;;;;;;24.20;10.30;;;20.00;66.70;;;;;;5068059;28;43383;-72
2022/10/03 05:21:39;;;;;;;24.07;10.63;;;20.20;66.30;;;;;;5063467;28;43450;-73
2022/10/03 05:24:14;;;;;;;24.10;10.40;;;20.20;66.00;;;;;;5066440;28;45438;-71
2022/10/03 05:26:46;;;;;;;24.97;10.00;;;20.20;66.00;;;;;;5067103;28;43874;-72
2022/10/03 05:29:24;;;;;;;24.33;10.27;;;20.20;66.30;;;;;;5066360;28;43406;-71
2022/10/03 05:32:00;;;;;;;19.43;9.67;;;20.20;66.20;;;;;;5064532;28;43521;-73
2022/10/03 05:34:34;;;;;;;21.63;9.80;;;20.20;66.20;;;;;;5062768;28;43595;-71
2022/10/03 05:37:13;;;;;;;18.83;9.63;;;20.10;66.20;;;;;;5061511;28;44078;-71
2022/10/03 05:39:42;;;;;;;22.40;10.47;;;20.00;66.30;;;;;;5067018;28;43450;-72
2022/10/03 05:42:39;;;;;;;24.07;10.43;;;20.00;67.70;;;;;;5068032;28;43607;-70
2022/10/03 05:45:20;;;;;;;24.20;10.17;;;20.00;66.80;;;;;;5062332;28;43895;-71
2022/10/03 05:47:50;;;;;;;19.30;9.67;;;20.00;66.70;;;;;;5065425;28;43430;-72
2022/10/03 05:50:49;;;;;;;17.23;9.60;;;20.00;66.70;;;;;;5066238;28;44163;-71
2022/10/03 05:53:40;;;;;;;19.13;10.10;;;19.90;66.70;;;;;;5052197;28;43672;-71
2022/10/03 05:56:09;;;;;;;19.90;10.10;;;19.90;67.30;;;;;;5082018;27;43611;-74
2022/10/03 05:59:24;;;;;;;17.23;8.77;;;19.90;67.10;;;;;;5082331;27;43467;-70
2022/10/03 06:02:35;;;;;;;16.70;8.80;;;19.90;66.90;;;;;;4986073;27;44138;-70
2022/10/03 06:05:12;;;;;;;16.03;8.80;;;19.90;66.90;;;;;;5087199;27;43491;-70
2022/10/03 06:07:47;;;;;;;15.87;8.60;;;19.80;66.90;;;;;;5094698;27;43599;-70
2022/10/03 06:10:49;;;;;;;18.80;9.70;;;19.90;67.50;;;;;;5070836;27;44652;-72
2022/10/03 06:13:21;;;;;;;18.13;10.43;;;19.90;67.00;;;;;;5004798;28;43459;-71
2022/10/03 06:15:56;;;;;;;21.00;10.53;;;20.10;66.70;;;;;;5081639;27;43434;-69
2022/10/03 06:18:57;;;;;;;18.87;9.33;;;20.20;66.10;;;;;;5085231;27;43936;-71
2022/10/03 06:21:44;;;;;;;19.90;10.17;;;20.30;65.70;;;;;;5065181;27;44683;-70
2022/10/03 06:24:32;;;;;;;17.77;9.73;;;20.30;65.80;;;;;;5092565;27;44209;-71
2022/10/03 06:27:38;;;;;;;16.17;8.40;;;20.20;65.90;;;;;;5091009;27;43515;-71
2022/10/03 06:30:12;;;;;;;19.10;9.27;;;20.10;66.10;;;;;;5092790;27;43612;-72
2022/10/03 06:33:14;;;;;;;17.20;8.77;;;20.00;66.70;;;;;;5079548;27;43499;-71
2022/10/03 06:36:17;;;;;;;13.90;8.30;;;20.00;66.80;;;;;;5074871;27;44010;-71
2022/10/03 06:39:25;;;;;;;13.00;7.67;;;20.00;66.60;;;;;;5091734;27;43601;-72
2022/10/03 06:42:16;;;;;;;13.93;8.17;;;19.90;66.60;;;;;;5101438;27;43847;-72
2022/10/03 06:45:04;;;;;;;15.63;8.63;;;19.90;66.80;;;;;;5088449;27;43934;-72
2022/10/03 06:47:56;;;;;;;17.00;8.27;;;19.80;67.20;;;;;;5104906;27;43445;-69
2022/10/03 06:50:50;;;;;;;14.57;8.70;;;19.90;67.10;;;;;;5091235;27;43606;-71
2022/10/03 06:53:27;;;;;;;14.80;8.33;;;20.00;66.50;;;;;;5101926;27;43851;-72
2022/10/03 06:56:23;;;;;;;18.10;8.73;;;20.20;66.30;;;;;;5107437;27;44352;-71
2022/10/03 06:59:36;;;;;;;12.93;8.00;;;20.20;66.10;;;;;;5105498;27;44043;-70
2022/10/03 07:02:36;;;;;;;15.23;8.20;;;20.20;66.40;;;;;;5098077;27;44256;-71
2022/10/03 07:05:34;;;;;;;12.97;7.60;;;20.20;66.40;;;;;;5106196;27;45738;-70
2022/10/03 07:08:52;;;;;;;14.27;8.03;;;20.10;66.20;;;;;;5104169;27;43530;-71
2022/10/03 07:11:56;;;;;;;13.43;7.70;;;20.00;66.30;;;;;;5095317;27;43426;-70
2022/10/03 07:14:51;;;;;;;14.93;8.07;;;20.00;67.00;;;;;;5076141;27;43618;-71
2022/10/03 07:17:29;;;;;;;12.87;7.83;;;20.00;67.00;;;;;;5105867;27;43874;-71
2022/10/03 07:20:06;;;;;;;12.40;7.50;;;20.00;66.90;;;;;;5107492;27;43473;-71
2022/10/03 07:23:19;;;;;;;11.53;7.63;;;19.90;66.70;;;;;;5107173;27;43429;-72
2022/10/03 07:26:17;;;;;;;13.23;8.07;;;19.90;66.70;;;;;;5008778;28;43568;-70
2022/10/03 07:29:12;;;;;;;13.27;7.67;;;19.80;67.20;;;;;;4989437;28;45832;-71
2022/10/03 07:31:54;;;;;;;12.20;7.60;;;19.90;67.20;;;;;;5097752;27;43462;-70
2022/10/03 07:35:07;;;;;;;11.83;7.67;;;20.10;66.80;;;;;;5099057;27;43466;-70
2022/10/03 07:40:59;;;;;;;10.00;6.63;;;20.30;65.70;;;;;;5107076;27;43895;-73
2022/10/03 07:43:57;;;;;;;9.17;6.40;;;20.30;65.70;;;;;;5100954;27;43585;-70
2022/10/03 07:46:42;;;;;;;8.40;6.43;;;20.20;66.00;;;;;;5090395;27;43423;-71
2022/10/03 07:49:18;;;;;;;10.53;6.50;;;20.10;66.20;;;;;;5097458;27;43363;-71
2022/10/03 07:51:53;;;;;;;8.87;6.60;;;20.00;66.70;;;;;;5106391;27;43634;-70
2022/10/03 07:54:37;;;;;;;8.73;6.50;;;20.00;66.90;;;;;;5095081;27;45025;-71
2022/10/03 07:57:29;;;;;;;8.70;5.77;;;20.00;66.80;;;;;;5092575;27;43402;-73
2022/10/03 08:00:23;;;;;;;8.70;6.20;;;19.90;66.70;;;;;;5108517;27;43423;-71
2022/10/03 08:03:35;;;;;;;9.33;6.27;;;19.90;66.70;;;;;;5110039;27;43744;-72
2022/10/03 08:06:23;;;;;;;9.17;6.47;;;19.80;67.20;;;;;;5108885;27;43959;-70
2022/10/03 08:09:17;;;;;;;6.47;5.63;;;19.90;67.20;;;;;;5105255;27;43609;-70
2022/10/03 08:12:10;;;;;;;6.37;5.43;;;19.80;66.90;;;;;;5107602;27;43406;-72
2022/10/03 08:14:45;;;;;;;5.63;5.00;;;19.80;66.90;;;;;;5105134;27;43962;-72
2022/10/03 08:18:01;;;;;;;6.63;5.37;;;19.80;67.00;;;;;;5097187;27;44454;-70
2022/10/03 08:20:38;;;;;;;7.00;5.30;;;19.80;67.50;;;;;;5009476;28;43475;-71
2022/10/03 08:23:36;;;;;;;8.80;5.40;;;19.90;67.30;;;;;;5095962;27;43485;-72
2022/10/03 08:26:10;;;;;;;7.00;5.50;;;20.10;66.70;;;;;;5106721;27;43839;-71
2022/10/03 08:28:57;;;;;;;7.63;5.10;;;20.20;66.10;;;;;;5109236;27;43415;-71
2022/10/03 08:31:55;;;;;;;5.63;5.10;;;20.30;65.80;;;;;;5106855;27;43476;-70
2022/10/03 08:34:42;;;;;;;6.17;4.97;;;20.30;65.70;;;;;;5098072;27;43631;-71
2022/10/03 08:37:55;;;;;;;5.33;4.83;;;20.20;65.80;;;;;;5092137;27;44184;-70
2022/10/03 08:40:56;;;;;;;5.00;4.50;;;20.10;66.10;;;;;;5029322;28;43460;-71
2022/10/03 08:44:06;;;;;;;5.80;5.10;;;20.00;66.70;;;;;;5108813;27;43456;-71
2022/10/03 08:47:10;;;;;;;6.23;4.90;;;20.00;66.80;;;;;;5076555;27;43982;-70
2022/10/03 08:50:07;;;;;;;5.73;4.80;;;19.90;66.60;;;;;;5006372;28;44096;-70
2022/10/03 08:52:41;;;;;;;4.43;4.03;;;19.90;66.80;;;;;;5096518;27;43516;-71
2022/10/03 08:55:44;;;;;;;5.17;4.77;;;19.80;66.90;;;;;;5101130;27;43487;-71
2022/10/03 08:58:37;;;;;;;5.70;4.27;;;19.80;67.40;;;;;;5090944;27;43484;-71
2022/10/03 09:01:17;;;;;;;5.27;4.80;;;19.90;67.00;;;;;;5109660;27;43900;-73
2022/10/03 09:04:12;;;;;;;4.63;4.10;;;20.10;66.60;;;;;;5108991;27;44345;-73
2022/10/03 09:07:05;;;;;;;4.47;4.07;;;20.10;66.30;;;;;;5106944;27;43389;-69
2022/10/03 09:10:37;;;;;;;4.83;4.50;;;20.00;66.30;;;;;;5109807;27;43512;-72
2022/10/03 09:13:45;;;;;;;4.30;3.90;;;20.00;66.70;;;;;;5091654;27;45633;-71
2022/10/03 09:16:52;;;;;;;4.03;3.63;;;20.00;66.50;;;;;;5022915;28;43473;-71
2022/10/03 09:19:28;;;;;;;4.83;4.17;;;20.00;67.40;;;;;;5006118;28;43948;-71
2022/10/03 09:22:09;;;;;;;4.67;4.27;;;19.90;66.70;;;;;;5088481;27;43578;-71
2022/10/03 09:25:05;;;;;;;4.57;4.17;;;19.90;67.20;;;;;;5109380;27;43595;-72
2022/10/03 09:27:49;;;;;;;4.43;4.03;;;19.90;67.20;;;;;;5102283;27;43540;-71
2022/10/03 09:30:21;;;;;;;3.93;3.70;;;20.00;66.80;;;;;;5108541;27;43421;-70
2022/10/03 09:33:44;;;;;;;4.03;3.73;;;20.10;66.50;;;;;;5109816;27;43447;-70
2022/10/03 09:36:31;;;;;;;4.43;4.03;;;20.00;66.40;;;;;;5102332;27;43923;-71
2022/10/03 09:39:41;;;;;;;4.07;3.77;;;20.00;66.90;;;;;;5107627;27;43488;-71
2022/10/03 09:42:51;;;;;;;3.73;3.47;;;20.00;66.70;;;;;;5107192;27;43414;-70
2022/10/03 09:45:52;;;;;;;3.70;3.40;;;20.00;66.70;;;;;;5083398;27;43553;-71
2022/10/03 09:48:38;;;;;;;4.20;3.80;;;19.90;66.80;;;;;;5068286;27;44025;-71
2022/10/03 09:51:21;;;;;;;3.93;3.63;;;19.90;67.20;;;;;;5092445;27;45013;-70
2022/10/03 09:54:30;;;;;;;2.93;2.83;;;19.90;67.30;;;;;;5107765;27;43401;-73
2022/10/03 09:57:44;;;;;;;3.37;3.17;;;19.90;67.00;;;;;;5108163;27;43996;-70
2022/10/03 10:00:17;;;;;;;3.27;3.07;;;19.80;67.00;;;;;;5107537;27;43605;-70
2022/10/03 10:03:27;;;;;;;3.70;3.47;;;19.80;67.20;;;;;;5107602;27;43455;-72
2022/10/03 10:06:14;;;;;;;3.70;3.50;;;19.80;67.60;;;;;;5106699;27;43501;-70
2022/10/03 10:09:04;;;;;;;3.80;3.50;;;19.90;67.50;;;;;;5106526;27;43438;-72
2022/10/03 10:11:55;;;;;;;3.53;3.30;;;20.00;67.10;;;;;;5058513;27;46026;-70
2022/10/03 10:14:40;;;;;;;3.40;3.20;;;20.20;66.60;;;;;;5101932;27;43520;-71
2022/10/03 10:17:35;;;;;;;3.23;3.03;;;20.20;66.20;;;;;;5101165;27;44116;-70
2022/10/03 10:20:08;;;;;;;3.30;3.10;;;20.20;66.10;;;;;;5108151;27;43417;-72
2022/10/03 10:22:51;;;;;;;3.30;3.10;;;20.10;66.30;;;;;;5106316;27;44112;-72
2022/10/03 10:25:49;;;;;;;3.27;3.07;;;20.00;66.50;;;;;;5107610;27;43484;-71
2022/10/03 10:28:46;;;;;;;3.93;3.63;;;20.00;67.00;;;;;;5099475;27;43932;-72
2022/10/03 10:31:53;;;;;;;3.17;2.97;;;20.00;67.20;;;;;;5060536;27;43470;-71
2022/10/03 10:34:51;;;;;;;3.03;2.93;;;19.90;67.00;;;;;;5103165;27;43682;-71
2022/10/03 10:37:36;;;;;;;3.30;3.10;;;19.90;67.10;;;;;;5091957;27;45131;-71
2022/10/03 10:40:57;;;;;;;3.43;3.23;;;19.90;67.20;;;;;;5107053;27;43464;-71
2022/10/03 10:44:02;;;;;;;3.10;3.00;;;19.90;67.70;;;;;;5001339;28;43598;-73
2022/10/03 10:47:06;;;;;;;3.00;2.80;;;20.00;67.20;;;;;;5000105;28;43692;-73
2022/10/03 10:50:02;;;;;;;2.90;2.70;;;20.10;66.90;;;;;;5071261;27;45160;-71
2022/10/03 10:53:03;;;;;;;3.13;2.93;;;20.10;66.60;;;;;;5106056;27;43676;-71
2022/10/03 10:56:26;;;;;;;2.93;2.83;;;20.00;66.90;;;;;;5108133;27;43407;-73
2022/10/03 10:59:37;;;;;;;3.07;2.87;;;20.10;66.90;;;;;;5042371;28;43621;-72
2022/10/03 11:02:37;;;;;;;2.60;2.50;;;20.00;66.90;;;;;;4996587;28;44121;-75
2022/10/03 11:05:41;;;;;;;3.17;2.97;;;20.00;67.10;;;;;;5105087;27;43449;-70
2022/10/03 11:08:44;;;;;;;2.57;2.47;;;19.90;67.20;;;;;;5081457;27;43534;-69
2022/10/03 11:11:56;;;;;;;2.80;2.60;;;19.90;67.40;;;;;;5102514;27;44139;-72
2022/10/03 11:14:50;;;;;;;2.63;2.53;;;19.90;67.40;;;;;;5022781;28;44187;-71
2022/10/03 11:17:44;;;;;;;2.73;2.63;;;19.90;67.40;;;;;;5022878;28;43425;-70
2022/10/03 11:20:45;;;;;;;2.80;2.70;;;19.80;67.50;;;;;;5079825;27;43560;-71
2022/10/03 11:23:29;;;;;;;2.70;2.60;;;19.80;67.70;;;;;;5090533;27;46254;-70
2022/10/03 11:26:20;;;;;;;3.17;2.97;;;19.90;67.70;;;;;;5107149;27;43382;-71
2022/10/03 11:29:14;;;;;;;2.77;2.67;;;20.00;67.20;;;;;;5104085;27;44289;-71
2022/10/03 11:32:13;;;;;;;2.90;2.73;;;20.10;66.70;;;;;;5105189;27;43461;-73
2022/10/03 11:35:01;;;;;;;2.50;2.40;;;20.20;66.70;;;;;;5105220;27;43595;-71
2022/10/03 11:37:41;;;;;;;2.77;2.67;;;20.10;67.00;;;;;;5102528;27;43462;-70
2022/10/03 11:40:27;;;;;;;3.40;3.10;;;20.10;66.30;;;;;;5103850;27;43946;-70
2022/10/03 11:43:00;;;;;;;2.67;2.50;;;20.10;66.90;;;;;;5088633;27;43889;-72
2022/10/03 11:45:31;;;;;;;3.20;3.00;;;20.00;66.70;;;;;;5106923;27;43778;-71
2022/10/03 11:48:18;;;;;;;3.33;3.13;;;20.00;66.70;;;;;;5107076;27;43480;-71
2022/10/03 11:50:48;;;;;;;3.03;2.83;;;20.00;66.60;;;;;;5101490;27;43466;-73
2022/10/03 11:53:23;;;;;;;2.60;2.50;;;19.90;66.10;;;;;;5107385;27;43399;-70
2022/10/03 11:55:57;;;;;;;2.63;2.53;;;19.90;66.60;;;;;;5099318;27;43969;-70
2022/10/03 11:58:35;;;;;;;2.83;2.73;;;19.90;66.60;;;;;;5106540;27;43534;-71
2022/10/03 12:01:16;;;;;;;2.93;2.80;;;19.90;66.70;;;;;;5106578;27;43471;-70
2022/10/03 12:03:47;;;;;;;2.73;2.60;;;19.90;66.70;;;;;;5104952;27;44062;-71
2022/10/03 12:09:07;;;;;;;3.10;2.90;;;19.90;65.70;;;;;;5103088;27;43393;-70
2022/10/03 12:11:38;;;;;;;2.60;2.50;;;20.00;65.20;;;;;;5093846;27;43507;-72
2022/10/03 12:14:22;;;;;;;2.87;2.77;;;20.10;65.10;;;;;;5106629;27;43410;-71
2022/10/03 12:17:04;;;;;;;3.13;2.93;;;20.10;65.50;;;;;;5106507;27;43615;-71
2022/10/03 12:19:35;;;;;;;3.13;2.70;;;20.00;65.00;;;;;;5103590;27;44069;-69
2022/10/03 12:22:09;;;;;;;2.97;2.70;;;20.00;64.40;;;;;;5106169;27;43939;-69
2022/10/03 12:24:37;;;;;;;3.10;2.83;;;20.00;65.30;;;;;;5102396;27;43376;-71
2022/10/03 12:27:14;;;;;;;3.00;2.90;;;20.00;65.40;;;;;;5090586;27;43832;-72
2022/10/03 12:29:46;;;;;;;3.50;3.30;;;19.90;65.40;;;;;;5105521;27;43534;-70
2022/10/03 12:32:22;;;;;;;3.43;3.03;;;19.90;65.00;;;;;;5096804;27;43418;-71
2022/10/03 12:34:53;;;;;;;3.20;2.90;;;19.90;62.90;;;;;;5101007;27;43402;-70
2022/10/03 12:37:40;;;;;;;3.33;2.73;;;19.80;64.20;;;;;;5104486;27;43613;-71
2022/10/03 12:40:15;;;;;;;3.03;2.73;;;19.80;64.20;;;;;;5106301;27;43477;-69
2022/10/03 12:42:47;;;;;;;2.97;2.70;;;19.80;64.10;;;;;;5109503;27;43431;-72
2022/10/03 12:45:23;;;;;;;3.27;2.90;;;19.80;64.20;;;;;;5108845;27;44043;-70
2022/10/03 12:47:59;;;;;;;3.40;3.07;;;19.80;64.40;;;;;;5108800;27;43822;-71
2022/10/03 12:50:39;;;;;;;11.57;3.03;;;19.80;64.50;;;;;;5106822;27;43456;-69
2022/10/03 12:53:37;;;;;;;7.73;2.93;;;20.00;64.60;;;;;;5101309;27;44068;-72
2022/10/03 12:56:07;;;;;;;3.70;2.77;;;20.00;64.30;;;;;;5105673;27;44065;-70
2022/10/03 12:58:43;;;;;;;3.60;2.57;;;20.00;64.60;;;;;;5108908;27;43903;-70
2022/10/03 13:01:15;;;;;;;3.10;2.80;;;20.00;64.80;;;;;;5092539;27;44015;-69
2022/10/03 13:03:50;;;;;;;3.30;3.10;;;20.00;65.00;;;;;;5106435;27;44018;-70
2022/10/03 13:06:29;;;;;;;5.23;3.00;;;19.90;65.20;;;;;;5102886;27;43461;-71
2022/10/03 13:09:24;;;;;;;3.53;2.70;;;19.90;65.40;;;;;;5109684;27;43651;-70
2022/10/03 13:11:59;;;;;;;2.53;2.40;;;19.90;65.60;;;;;;5086670;27;44585;-69
2022/10/03 13:14:42;;;;;;;5.63;3.00;;;19.80;65.50;;;;;;5109063;27;43496;-70
2022/10/03 13:17:16;;;;;;;4.57;3.10;;;19.80;65.70;;;;;;5097345;27;43446;-70
2022/10/03 13:19:48;;;;;;;5.80;3.00;;;19.80;66.20;;;;;;5094097;27;45686;-70
2022/10/03 13:22:25;;;;;;;8.03;3.07;;;19.90;65.80;;;;;;5091466;27;44371;-72
2022/10/03 13:24:57;;;;;;;17.03;3.53;;;20.10;65.40;;;;;;5091590;27;43442;-71
2022/10/03 13:27:31;;;;;;;19.87;3.90;;;20.30;63.20;;;;;;5107793;27;43955;-75
2022/10/03 13:30:04;;;;;;;28.03;4.27;;;20.50;62.10;;;;;;5106569;27;43600;-70
2022/10/03 13:32:33;;;;;;;15.07;3.93;;;20.70;61.30;;;;;;5108573;27;44181;-70
2022/10/03 13:38:18;;;;;;;11.60;4.00;;;21.00;61.10;;;;;;5028415;28;43379;-71
2022/10/03 13:40:51;;;;;;;11.57;3.63;;;21.10;60.90;;;;;;5077207;27;45848;-70
2022/10/03 13:43:24;;;;;;;7.47;3.30;;;21.20;61.00;;;;;;5109039;27;43409;-71
2022/10/03 13:45:55;;;;;;;9.07;3.57;;;21.20;60.60;;;;;;5109143;27;43451;-72
2022/10/03 13:48:25;;;;;;;7.97;3.33;;;21.20;60.60;;;;;;5096946;27;43367;-70
2022/10/03 13:50:57;;;;;;;10.80;3.50;;;21.10;60.70;;;;;;5108663;27;43813;-70
2022/10/03 13:53:41;;;;;;;9.90;4.20;;;20.90;61.40;;;;;;5107981;27;43542;-70
2022/10/03 13:56:10;;;;;;;8.87;3.23;;;20.70;61.40;;;;;;5106333;27;43504;-70
2022/10/03 13:58:42;;;;;;;8.50;3.47;;;20.60;60.50;;;;;;5108551;27;43557;-71
2022/10/03 14:01:26;;;;;;;8.23;2.83;;;20.50;61.20;;;;;;5108637;27;44178;-70
2022/10/03 14:04:16;;;;;;;5.33;3.13;;;20.40;61.80;;;;;;5107039;27;43504;-70
2022/10/03 14:06:45;;;;;;;4.77;3.03;;;20.30;62.00;;;;;;5108822;27;43431;-70
2022/10/03 14:09:38;;;;;;;4.80;2.97;;;20.20;62.70;;;;;;5097111;27;43518;-71
2022/10/03 14:12:12;;;;;;;6.47;3.00;;;20.20;63.20;;;;;;5103360;27;43567;-71
2022/10/03 14:14:48;;;;;;;3.57;2.90;;;20.30;63.00;;;;;;5108916;27;43979;-70
2022/10/03 14:17:19;;;;;;;5.00;3.10;;;20.40;63.00;;;;;;5088024;27;43528;-71
2022/10/03 14:19:57;;;;;;;5.77;2.80;;;20.30;63.00;;;;;;5109426;27;43361;-70
2022/10/03 14:22:33;;;;;;;3.07;2.87;;;20.30;64.10;;;;;;5101265;27;43599;-69
2022/10/03 14:25:08;;;;;;;7.77;3.03;;;20.20;63.60;;;;;;5103451;27;43467;-70
2022/10/03 14:27:42;;;;;;;3.30;3.00;;;20.20;63.60;;;;;;5104135;27;43458;-70